Time;durP1;ratioP1;P1;durP2;ratioP2;P2;SDS_P1;SDS_P2;PMS_P1;PMS_P2;Temp;Humidity;BMP_temperature;BMP_pressure;BME280_temperature;BME280_humidity;BME280_pressure;Samples;Min_cycle;Max_cycle;Signal;HPM_P1;HPM_P2
2022/12/16 00:01:05;;;;;;;23.67;13.53;;;1.90;99.90;;;;;;5067752;28;20250;-49
2022/12/16 00:03:33;;;;;;;19.73;12.20;;;1.90;99.90;;;;;;5071887;28;20232;-49
2022/12/16 00:06:02;;;;;;;24.00;13.00;;;1.90;99.90;;;;;;5064811;28;20251;-49
2022/12/16 00:08:31;;;;;;;23.20;13.50;;;1.90;99.90;;;;;;5069355;28;20227;-50
2022/12/16 00:10:59;;;;;;;23.47;13.70;;;1.90;99.90;;;;;;5051803;28;20282;-49
2022/12/16 00:13:26;;;;;;;25.23;12.17;;;1.90;99.90;;;;;;5051619;28;20209;-49
2022/12/16 00:15:53;;;;;;;22.07;12.43;;;1.80;99.90;;;;;;5057200;28;20207;-48
2022/12/16 00:18:22;;;;;;;18.60;11.43;;;1.90;99.90;;;;;;5065228;28;20236;-48
2022/12/16 00:20:51;;;;;;;19.37;11.07;;;1.80;99.90;;;;;;5062047;28;20198;-48
2022/12/16 00:23:18;;;;;;;23.27;13.27;;;1.80;99.90;;;;;;5071533;28;20207;-49
2022/12/16 00:25:46;;;;;;;19.83;12.13;;;1.80;99.90;;;;;;5061677;28;20690;-50
2022/12/16 00:28:15;;;;;;;17.03;11.77;;;1.70;99.90;;;;;;5056506;28;20261;-50
2022/12/16 00:30:43;;;;;;;17.50;11.80;;;1.70;99.90;;;;;;5071369;28;20252;-49
2022/12/16 00:33:10;;;;;;;19.93;12.50;;;1.60;99.90;;;;;;5071641;28;20226;-49
2022/12/16 00:35:38;;;;;;;16.63;11.07;;;1.60;99.90;;;;;;5059973;28;20234;-50
2022/12/16 00:38:05;;;;;;;18.63;11.03;;;1.60;99.90;;;;;;5065433;28;20231;-49
2022/12/16 00:40:32;;;;;;;16.57;11.80;;;1.70;99.90;;;;;;5062190;28;20208;-48
2022/12/16 00:42:59;;;;;;;15.67;10.93;;;1.60;99.90;;;;;;5070914;28;20327;-49
2022/12/16 00:45:27;;;;;;;19.57;12.00;;;1.60;99.90;;;;;;5070175;28;20229;-50
2022/12/16 00:47:54;;;;;;;17.80;9.90;;;1.60;99.90;;;;;;5089333;22;20239;-49
2022/12/16 00:50:21;;;;;;;21.33;11.63;;;1.70;99.90;;;;;;5063821;28;20230;-49
2022/12/16 00:52:49;;;;;;;20.97;11.83;;;1.70;99.90;;;;;;5057393;28;20981;-50
2022/12/16 00:55:18;;;;;;;20.03;11.23;;;1.70;99.90;;;;;;5060789;28;20244;-49
2022/12/16 00:57:45;;;;;;;22.17;13.13;;;1.70;99.90;;;;;;5065625;28;20224;-51
2022/12/16 01:00:15;;;;;;;19.77;12.03;;;1.70;99.90;;;;;;5066266;28;20216;-49
2022/12/16 01:02:43;;;;;;;18.60;12.13;;;1.60;99.90;;;;;;5059768;28;20286;-49
2022/12/16 01:05:13;;;;;;;22.63;12.73;;;1.70;99.90;;;;;;5063081;28;20209;-49
2022/12/16 01:07:40;;;;;;;23.43;13.17;;;1.70;99.90;;;;;;5061239;28;20228;-49
2022/12/16 01:10:10;;;;;;;17.57;11.93;;;1.60;99.90;;;;;;5070720;28;20210;-49
2022/12/16 01:12:38;;;;;;;20.30;12.27;;;1.60;99.90;;;;;;5062397;28;20207;-50
2022/12/16 01:15:07;;;;;;;18.83;11.03;;;1.50;99.90;;;;;;5060350;28;20582;-49
2022/12/16 01:17:35;;;;;;;20.33;11.50;;;1.50;99.90;;;;;;5069706;28;20231;-48
2022/12/16 01:20:02;;;;;;;18.87;11.57;;;1.60;99.90;;;;;;5066991;28;20195;-49
2022/12/16 01:22:31;;;;;;;20.53;13.03;;;1.60;99.90;;;;;;5066518;28;20561;-50
2022/12/16 01:24:58;;;;;;;19.23;12.53;;;1.60;99.90;;;;;;5063185;28;20566;-50
2022/12/16 01:27:26;;;;;;;16.73;12.57;;;1.60;99.90;;;;;;5055508;28;20216;-48
2022/12/16 01:29:54;;;;;;;21.70;13.17;;;1.60;99.90;;;;;;5068904;28;20208;-49
2022/12/16 01:32:21;;;;;;;21.73;13.47;;;1.60;99.90;;;;;;5058831;28;20215;-49
2022/12/16 01:34:50;;;;;;;22.53;13.07;;;1.60;99.90;;;;;;5069282;28;20199;-49
2022/12/16 01:37:17;;;;;;;20.43;12.80;;;1.50;99.90;;;;;;5063267;28;20638;-49
2022/12/16 01:39:45;;;;;;;20.63;12.33;;;1.50;99.90;;;;;;5065989;28;20239;-49
2022/12/16 01:42:13;;;;;;;16.07;11.37;;;1.50;99.90;;;;;;5061108;28;20217;-49
2022/12/16 01:44:45;;;;;;;22.80;13.87;;;1.50;99.90;;;;;;5057708;28;20197;-50
2022/12/16 01:47:17;;;;;;;19.03;11.50;;;1.50;99.90;;;;;;5072245;28;20608;-50
2022/12/16 01:49:50;;;;;;;18.73;11.67;;;1.50;99.90;;;;;;5064405;28;20209;-49
2022/12/16 01:52:22;;;;;;;17.70;11.67;;;1.50;99.90;;;;;;5064113;28;20224;-49
2022/12/16 01:54:54;;;;;;;17.93;10.60;;;1.40;99.90;;;;;;5065702;28;20211;-49
2022/12/16 01:57:27;;;;;;;19.13;11.97;;;1.50;99.90;;;;;;5072238;28;20610;-49
2022/12/16 01:59:56;;;;;;;17.17;10.80;;;1.50;99.90;;;;;;5063802;28;20230;-49
2022/12/16 02:02:23;;;;;;;15.00;11.17;;;1.50;99.90;;;;;;5065534;28;20206;-49
2022/12/16 02:07:36;;;;;;;18.53;11.00;;;1.60;99.90;;;;;;5063431;28;20292;-49
2022/12/16 02:10:04;;;;;;;17.43;10.50;;;1.60;99.90;;;;;;5058629;28;20286;-49
2022/12/16 02:12:40;;;;;;;16.33;10.63;;;1.60;99.90;;;;;;5071136;28;20251;-50
2022/12/16 02:15:31;;;;;;;15.87;10.93;;;1.60;99.90;;;;;;5067729;28;20201;-50
2022/12/16 02:18:05;;;;;;;15.63;10.67;;;1.60;99.90;;;;;;5063342;28;20219;-49
2022/12/16 02:21:07;;;;;;;13.10;9.30;;;1.60;99.90;;;;;;5061913;28;20321;-48
2022/12/16 02:24:09;;;;;;;11.90;8.53;;;1.50;99.90;;;;;;5072490;28;20201;-49
2022/12/16 02:27:05;;;;;;;14.10;10.47;;;1.60;99.90;;;;;;5044505;28;20230;-49
2022/12/16 02:29:50;;;;;;;15.73;10.00;;;1.60;99.90;;;;;;5056146;28;20558;-49
2022/12/16 02:32:27;;;;;;;14.70;9.80;;;1.60;99.90;;;;;;5066198;28;20661;-50
2022/12/16 02:34:58;;;;;;;14.90;9.33;;;1.60;99.90;;;;;;5069054;28;20201;-50
2022/12/16 02:37:37;;;;;;;9.27;7.90;;;1.50;99.90;;;;;;5067315;28;20242;-50
2022/12/16 02:40:11;;;;;;;13.37;8.47;;;1.60;99.90;;;;;;5074992;28;20209;-50
2022/12/16 02:42:45;;;;;;;13.10;8.97;;;1.60;99.90;;;;;;5077044;28;20199;-49
2022/12/16 02:45:16;;;;;;;13.13;8.33;;;1.60;99.90;;;;;;5081009;28;20205;-49
2022/12/16 02:47:45;;;;;;;11.53;7.50;;;1.60;99.90;;;;;;5081151;28;20222;-55
2022/12/16 02:50:20;;;;;;;10.23;7.20;;;1.50;99.90;;;;;;5071737;28;20206;-50
2022/12/16 02:52:47;;;;;;;9.93;7.27;;;1.50;99.90;;;;;;5066831;28;20252;-49
2022/12/16 02:55:15;;;;;;;11.00;7.77;;;1.60;99.90;;;;;;5073243;28;20214;-49
2022/12/16 02:58:11;;;;;;;12.83;8.53;;;1.60;99.90;;;;;;5061764;28;20229;-49
2022/12/16 03:00:47;;;;;;;8.17;6.30;;;1.70;99.90;;;;;;5061174;28;20225;-49
2022/12/16 03:03:20;;;;;;;6.93;6.13;;;1.80;99.90;;;;;;5062706;28;20229;-50
2022/12/16 03:05:51;;;;;;;10.63;6.47;;;1.70;99.90;;;;;;5062620;28;20205;-48
2022/12/16 03:08:24;;;;;;;8.97;6.63;;;1.70;99.90;;;;;;5059420;28;20695;-48
2022/12/16 03:10:55;;;;;;;8.87;5.93;;;1.70;99.90;;;;;;5057401;28;21622;-48
2022/12/16 03:13:23;;;;;;;8.40;6.97;;;1.70;99.90;;;;;;5068416;28;20202;-49
2022/12/16 03:15:53;;;;;;;8.10;6.43;;;1.60;99.90;;;;;;5068271;28;20206;-49
2022/12/16 03:18:23;;;;;;;13.20;7.73;;;1.60;99.90;;;;;;5062739;28;20234;-49
2022/12/16 03:20:55;;;;;;;10.47;6.87;;;1.70;99.90;;;;;;5064882;28;20198;-49
2022/12/16 03:23:27;;;;;;;9.03;6.97;;;1.70;99.90;;;;;;5066747;28;20232;-49
2022/12/16 03:26:01;;;;;;;11.37;7.57;;;1.70;99.90;;;;;;5068674;28;20233;-49
2022/12/16 03:28:39;;;;;;;9.93;7.33;;;1.70;99.90;;;;;;5062183;28;20223;-49
2022/12/16 03:31:16;;;;;;;8.60;7.70;;;1.60;99.90;;;;;;5060321;28;20203;-49
2022/12/16 03:33:50;;;;;;;8.47;6.60;;;1.60;99.90;;;;;;5062083;28;20288;-49
2022/12/16 03:36:21;;;;;;;6.43;5.77;;;1.50;99.90;;;;;;5064268;28;20555;-49
2022/12/16 03:38:50;;;;;;;11.63;8.03;;;1.50;99.90;;;;;;5062233;28;20255;-49
2022/12/16 03:41:20;;;;;;;7.37;6.67;;;1.50;99.90;;;;;;5061323;28;20634;-49
2022/12/16 03:43:47;;;;;;;10.40;7.90;;;1.50;99.90;;;;;;5060869;28;20231;-50
2022/12/16 03:46:16;;;;;;;10.27;7.27;;;1.50;99.90;;;;;;5060631;28;20233;-49
2022/12/16 03:48:49;;;;;;;11.10;7.30;;;1.50;99.90;;;;;;5062955;28;20731;-49
2022/12/16 03:51:16;;;;;;;10.57;7.27;;;1.40;99.90;;;;;;5056113;28;20203;-49
2022/12/16 03:53:43;;;;;;;11.17;7.77;;;1.40;99.90;;;;;;5064627;28;20199;-50
2022/12/16 03:56:11;;;;;;;9.63;7.27;;;1.40;99.90;;;;;;5071929;28;20209;-49
2022/12/16 03:58:39;;;;;;;12.13;7.93;;;1.40;99.90;;;;;;5061074;28;20246;-49
2022/12/16 04:01:08;;;;;;;13.33;8.30;;;1.40;99.90;;;;;;5056545;28;20583;-49
2022/12/16 04:03:35;;;;;;;10.87;7.17;;;1.50;99.90;;;;;;5063396;28;20610;-49
2022/12/16 04:06:04;;;;;;;10.83;8.60;;;1.50;99.90;;;;;;5069752;28;20684;-50
2022/12/16 04:08:31;;;;;;;9.83;7.60;;;1.40;99.90;;;;;;5061785;28;20219;-49
2022/12/16 04:25:02;;;;;;;11.60;7.63;;;1.30;99.90;;;;;;5062580;28;20240;-49
2022/12/16 04:27:29;;;;;;;11.83;8.07;;;1.30;99.90;;;;;;5061097;28;20617;-48
